sensor_id;sensor_type;location;lat;lon;timestamp;P1;durP1;ratioP1;P2;durP2;ratioP2
29378;SDS011;16362;47.202;15.258;2022-08-19T00:01:23;11.23;;;3.40;;
29378;SDS011;16362;47.202;15.258;2022-08-19T00:03:56;18.40;;;3.33;;
29378;SDS011;16362;47.202;15.258;2022-08-19T00:06:25;9.27;;;4.00;;
29378;SDS011;16362;47.202;15.258;2022-08-19T00:08:53;5.90;;;3.05;;
29378;SDS011;16362;47.202;15.258;2022-08-19T00:11:21;18.50;;;3.58;;
29378;SDS011;16362;47.202;15.258;2022-08-19T00:13:51;10.23;;;4.10;;
29378;SDS011;16362;47.202;15.258;2022-08-19T00:16:18;9.10;;;3.10;;
29378;SDS011;16362;47.202;15.258;2022-08-19T00:18:52;7.75;;;2.85;;
29378;SDS011;16362;47.202;15.258;2022-08-19T00:21:23;10.88;;;3.30;;
29378;SDS011;16362;47.202;15.258;2022-08-19T00:23:50;6.95;;;3.50;;
29378;SDS011;16362;47.202;15.258;2022-08-19T00:26:17;17.42;;;3.72;;
29378;SDS011;16362;47.202;15.258;2022-08-19T00:28:43;10.63;;;3.17;;
29378;SDS011;16362;47.202;15.258;2022-08-19T00:31:10;18.10;;;3.03;;
29378;SDS011;16362;47.202;15.258;2022-08-19T00:33:37;9.43;;;3.33;;
29378;SDS011;16362;47.202;15.258;2022-08-19T00:36:05;9.25;;;3.10;;
29378;SDS011;16362;47.202;15.258;2022-08-19T00:38:43;8.77;;;3.10;;
29378;SDS011;16362;47.202;15.258;2022-08-19T00:41:12;12.98;;;3.30;;
29378;SDS011;16362;47.202;15.258;2022-08-19T00:43:40;8.13;;;3.15;;
29378;SDS011;16362;47.202;15.258;2022-08-19T00:46:08;10.52;;;3.50;;
29378;SDS011;16362;47.202;15.258;2022-08-19T00:48:35;10.15;;;3.03;;
29378;SDS011;16362;47.202;15.258;2022-08-19T00:51:03;7.82;;;3.10;;
29378;SDS011;16362;47.202;15.258;2022-08-19T00:53:31;8.73;;;2.97;;
29378;SDS011;16362;47.202;15.258;2022-08-19T00:56:00;8.27;;;3.55;;
29378;SDS011;16362;47.202;15.258;2022-08-19T00:58:31;11.27;;;3.05;;
29378;SDS011;16362;47.202;15.258;2022-08-19T01:00:59;4.03;;;2.47;;
29378;SDS011;16362;47.202;15.258;2022-08-19T01:03:27;12.85;;;2.63;;
29378;SDS011;16362;47.202;15.258;2022-08-19T01:06:14;7.93;;;3.40;;
29378;SDS011;16362;47.202;15.258;2022-08-19T01:08:46;8.45;;;4.00;;
29378;SDS011;16362;47.202;15.258;2022-08-19T01:11:15;14.20;;;3.03;;
29378;SDS011;16362;47.202;15.258;2022-08-19T01:13:42;4.28;;;3.30;;
29378;SDS011;16362;47.202;15.258;2022-08-19T01:16:15;4.90;;;3.30;;
29378;SDS011;16362;47.202;15.258;2022-08-19T01:18:44;11.43;;;3.05;;
29378;SDS011;16362;47.202;15.258;2022-08-19T01:23:57;7.70;;;3.28;;
29378;SDS011;16362;47.202;15.258;2022-08-19T01:26:24;8.18;;;3.30;;
29378;SDS011;16362;47.202;15.258;2022-08-19T01:28:53;8.27;;;3.30;;
29378;SDS011;16362;47.202;15.258;2022-08-19T01:31:26;4.15;;;3.50;;
29378;SDS011;16362;47.202;15.258;2022-08-19T01:33:58;9.93;;;3.88;;
29378;SDS011;16362;47.202;15.258;2022-08-19T01:36:34;9.68;;;3.75;;
29378;SDS011;16362;47.202;15.258;2022-08-19T01:39:12;9.40;;;3.67;;
29378;SDS011;16362;47.202;15.258;2022-08-19T01:41:41;8.20;;;3.40;;
29378;SDS011;16362;47.202;15.258;2022-08-19T01:44:08;11.50;;;3.58;;
29378;SDS011;16362;47.202;15.258;2022-08-19T01:46:44;13.07;;;4.10;;
29378;SDS011;16362;47.202;15.258;2022-08-19T01:49:14;10.18;;;3.15;;
29378;SDS011;16362;47.202;15.258;2022-08-19T01:51:43;11.20;;;3.38;;
29378;SDS011;16362;47.202;15.258;2022-08-19T01:54:11;4.40;;;3.10;;
29378;SDS011;16362;47.202;15.258;2022-08-19T01:56:55;13.38;;;3.90;;
29378;SDS011;16362;47.202;15.258;2022-08-19T01:59:26;8.60;;;3.05;;
29378;SDS011;16362;47.202;15.258;2022-08-19T02:01:53;12.10;;;3.80;;
29378;SDS011;16362;47.202;15.258;2022-08-19T02:04:20;9.80;;;3.67;;
29378;SDS011;16362;47.202;15.258;2022-08-19T02:06:47;4.03;;;3.22;;
29378;SDS011;16362;47.202;15.258;2022-08-19T02:09:14;8.57;;;4.00;;
29378;SDS011;16362;47.202;15.258;2022-08-19T02:11:42;20.20;;;4.82;;
29378;SDS011;16362;47.202;15.258;2022-08-19T02:14:09;11.77;;;4.25;;
29378;SDS011;16362;47.202;15.258;2022-08-19T02:16:36;6.78;;;4.15;;
29378;SDS011;16362;47.202;15.258;2022-08-19T02:19:03;6.20;;;3.95;;
29378;SDS011;16362;47.202;15.258;2022-08-19T02:21:30;11.18;;;4.63;;
29378;SDS011;16362;47.202;15.258;2022-08-19T02:23:57;7.38;;;3.92;;
29378;SDS011;16362;47.202;15.258;2022-08-19T02:26:24;9.07;;;5.15;;
29378;SDS011;16362;47.202;15.258;2022-08-19T02:28:53;7.18;;;4.03;;
29378;SDS011;16362;47.202;15.258;2022-08-19T02:31:21;8.73;;;5.00;;
29378;SDS011;16362;47.202;15.258;2022-08-19T02:33:51;11.85;;;3.83;;
29378;SDS011;16362;47.202;15.258;2022-08-19T02:36:22;9.88;;;4.95;;
29378;SDS011;16362;47.202;15.258;2022-08-19T02:38:51;5.25;;;4.13;;
29378;SDS011;16362;47.202;15.258;2022-08-19T02:41:30;12.25;;;5.03;;
29378;SDS011;16362;47.202;15.258;2022-08-19T02:43:59;12.88;;;5.25;;
29378;SDS011;16362;47.202;15.258;2022-08-19T02:46:47;7.45;;;4.70;;
29378;SDS011;16362;47.202;15.258;2022-08-19T02:49:17;7.70;;;4.75;;
29378;SDS011;16362;47.202;15.258;2022-08-19T02:51:45;9.30;;;4.85;;
29378;SDS011;16362;47.202;15.258;2022-08-19T02:54:12;14.50;;;5.15;;
29378;SDS011;16362;47.202;15.258;2022-08-19T02:56:41;10.70;;;4.53;;
29378;SDS011;16362;47.202;15.258;2022-08-19T02:59:09;16.10;;;5.28;;
29378;SDS011;16362;47.202;15.258;2022-08-19T03:01:38;14.23;;;5.30;;
29378;SDS011;16362;47.202;15.258;2022-08-19T03:04:09;10.35;;;4.85;;
29378;SDS011;16362;47.202;15.258;2022-08-19T03:06:39;7.72;;;4.68;;
29378;SDS011;16362;47.202;15.258;2022-08-19T03:09:08;19.77;;;5.25;;
29378;SDS011;16362;47.202;15.258;2022-08-19T03:11:35;11.93;;;4.50;;
29378;SDS011;16362;47.202;15.258;2022-08-19T03:14:02;11.48;;;4.85;;
29378;SDS011;16362;47.202;15.258;2022-08-19T03:16:31;10.82;;;4.97;;
29378;SDS011;16362;47.202;15.258;2022-08-19T03:19:00;10.25;;;4.63;;
29378;SDS011;16362;47.202;15.258;2022-08-19T03:21:30;10.65;;;4.60;;
29378;SDS011;16362;47.202;15.258;2022-08-19T03:23:59;14.45;;;4.45;;
29378;SDS011;16362;47.202;15.258;2022-08-19T03:26:28;11.20;;;4.57;;
29378;SDS011;16362;47.202;15.258;2022-08-19T03:28:56;14.88;;;4.47;;
29378;SDS011;16362;47.202;15.258;2022-08-19T03:31:24;12.20;;;3.53;;
29378;SDS011;16362;47.202;15.258;2022-08-19T03:34:30;14.50;;;4.90;;
29378;SDS011;16362;47.202;15.258;2022-08-19T03:36:58;12.60;;;4.07;;
29378;SDS011;16362;47.202;15.258;2022-08-19T03:39:29;12.73;;;4.47;;
29378;SDS011;16362;47.202;15.258;2022-08-19T03:41:57;9.30;;;5.63;;
29378;SDS011;16362;47.202;15.258;2022-08-19T03:44:46;13.80;;;4.55;;
29378;SDS011;16362;47.202;15.258;2022-08-19T03:47:13;9.55;;;4.45;;
29378;SDS011;16362;47.202;15.258;2022-08-19T03:49:42;10.23;;;4.45;;
29378;SDS011;16362;47.202;15.258;2022-08-19T03:52:10;10.95;;;4.28;;
29378;SDS011;16362;47.202;15.258;2022-08-19T03:54:37;7.25;;;4.15;;
29378;SDS011;16362;47.202;15.258;2022-08-19T03:57:04;8.95;;;3.83;;
29378;SDS011;16362;47.202;15.258;2022-08-19T03:59:33;8.88;;;3.90;;
29378;SDS011;16362;47.202;15.258;2022-08-19T04:02:02;8.65;;;3.95;;
29378;SDS011;16362;47.202;15.258;2022-08-19T04:04:35;10.75;;;4.10;;
29378;SDS011;16362;47.202;15.258;2022-08-19T04:07:03;9.50;;;3.90;;
29378;SDS011;16362;47.202;15.258;2022-08-19T04:09:30;13.00;;;4.50;;
29378;SDS011;16362;47.202;15.258;2022-08-19T04:11:57;10.82;;;4.68;;
29378;SDS011;16362;47.202;15.258;2022-08-19T04:14:26;17.05;;;4.63;;
29378;SDS011;16362;47.202;15.258;2022-08-19T04:16:58;5.75;;;3.97;;
29378;SDS011;16362;47.202;15.258;2022-08-19T04:19:26;8.02;;;5.18;;
29378;SDS011;16362;47.202;15.258;2022-08-19T04:21:55;9.43;;;4.18;;
29378;SDS011;16362;47.202;15.258;2022-08-19T04:24:22;7.07;;;4.28;;
29378;SDS011;16362;47.202;15.258;2022-08-19T04:26:49;12.38;;;4.00;;
29378;SDS011;16362;47.202;15.258;2022-08-19T04:29:18;9.73;;;4.60;;
29378;SDS011;16362;47.202;15.258;2022-08-19T04:31:48;8.93;;;5.00;;
29378;SDS011;16362;47.202;15.258;2022-08-19T04:34:16;9.25;;;4.53;;
29378;SDS011;16362;47.202;15.258;2022-08-19T04:36:44;9.13;;;4.80;;
29378;SDS011;16362;47.202;15.258;2022-08-19T04:39:12;14.77;;;4.88;;
29378;SDS011;16362;47.202;15.258;2022-08-19T04:41:41;10.77;;;5.43;;
29378;SDS011;16362;47.202;15.258;2022-08-19T04:44:27;15.02;;;4.82;;
29378;SDS011;16362;47.202;15.258;2022-08-19T04:46:58;11.75;;;5.25;;
29378;SDS011;16362;47.202;15.258;2022-08-19T04:49:26;14.07;;;5.72;;
29378;SDS011;16362;47.202;15.258;2022-08-19T04:51:54;17.85;;;6.28;;
29378;SDS011;16362;47.202;15.258;2022-08-19T04:54:22;9.35;;;5.57;;
29378;SDS011;16362;47.202;15.258;2022-08-19T04:57:04;10.10;;;6.28;;
29378;SDS011;16362;47.202;15.258;2022-08-19T04:59:33;11.55;;;6.10;;
29378;SDS011;16362;47.202;15.258;2022-08-19T05:02:01;7.07;;;5.75;;
29378;SDS011;16362;47.202;15.258;2022-08-19T05:04:28;17.00;;;6.20;;
29378;SDS011;16362;47.202;15.258;2022-08-19T05:06:58;7.53;;;5.00;;
29378;SDS011;16362;47.202;15.258;2022-08-19T05:09:28;15.55;;;6.03;;
29378;SDS011;16362;47.202;15.258;2022-08-19T05:12:15;14.80;;;5.13;;
29378;SDS011;16362;47.202;15.258;2022-08-19T05:14:43;7.53;;;4.82;;
29378;SDS011;16362;47.202;15.258;2022-08-19T05:17:12;7.63;;;5.53;;
29378;SDS011;16362;47.202;15.258;2022-08-19T05:20:00;16.77;;;5.90;;
29378;SDS011;16362;47.202;15.258;2022-08-19T05:22:46;17.95;;;5.80;;
29378;SDS011;16362;47.202;15.258;2022-08-19T05:25:15;11.73;;;6.68;;
29378;SDS011;16362;47.202;15.258;2022-08-19T05:27:46;7.93;;;4.60;;
29378;SDS011;16362;47.202;15.258;2022-08-19T05:30:13;20.05;;;6.00;;
29378;SDS011;16362;47.202;15.258;2022-08-19T05:32:41;6.68;;;5.50;;
29378;SDS011;16362;47.202;15.258;2022-08-19T05:35:08;6.72;;;5.43;;
29378;SDS011;16362;47.202;15.258;2022-08-19T05:37:36;8.43;;;5.78;;
29378;SDS011;16362;47.202;15.258;2022-08-19T05:40:03;8.38;;;5.22;;
29378;SDS011;16362;47.202;15.258;2022-08-19T05:42:31;7.38;;;5.35;;
29378;SDS011;16362;47.202;15.258;2022-08-19T05:44:57;8.02;;;5.70;;
29378;SDS011;16362;47.202;15.258;2022-08-19T05:47:24;8.27;;;5.97;;
29378;SDS011;16362;47.202;15.258;2022-08-19T05:49:51;8.23;;;5.20;;
29378;SDS011;16362;47.202;15.258;2022-08-19T05:52:19;12.00;;;5.25;;
29378;SDS011;16362;47.202;15.258;2022-08-19T05:54:51;6.55;;;5.18;;
29378;SDS011;16362;47.202;15.258;2022-08-19T05:57:21;8.60;;;6.15;;
29378;SDS011;16362;47.202;15.258;2022-08-19T05:59:49;6.97;;;5.20;;
29378;SDS011;16362;47.202;15.258;2022-08-19T06:02:27;11.20;;;5.43;;
29378;SDS011;16362;47.202;15.258;2022-08-19T06:04:55;10.20;;;5.75;;
29378;SDS011;16362;47.202;15.258;2022-08-19T06:07:21;8.52;;;5.88;;
29378;SDS011;16362;47.202;15.258;2022-08-19T06:09:49;12.52;;;5.68;;
29378;SDS011;16362;47.202;15.258;2022-08-19T06:12:29;8.55;;;4.80;;
29378;SDS011;16362;47.202;15.258;2022-08-19T06:17:33;9.05;;;4.97;;
29378;SDS011;16362;47.202;15.258;2022-08-19T06:20:03;4.30;;;4.00;;
29378;SDS011;16362;47.202;15.258;2022-08-19T06:22:31;9.23;;;5.07;;
29378;SDS011;16362;47.202;15.258;2022-08-19T06:24:57;5.07;;;4.60;;
29378;SDS011;16362;47.202;15.258;2022-08-19T06:27:24;10.07;;;4.80;;
29378;SDS011;16362;47.202;15.258;2022-08-19T06:29:51;10.80;;;4.82;;
29378;SDS011;16362;47.202;15.258;2022-08-19T06:32:18;5.35;;;4.63;;
29378;SDS011;16362;47.202;15.258;2022-08-19T06:34:45;11.65;;;4.75;;
29378;SDS011;16362;47.202;15.258;2022-08-19T06:37:13;5.47;;;5.05;;
29378;SDS011;16362;47.202;15.258;2022-08-19T06:39:41;5.90;;;4.55;;
29378;SDS011;16362;47.202;15.258;2022-08-19T06:42:10;19.88;;;5.03;;
29378;SDS011;16362;47.202;15.258;2022-08-19T06:44:43;7.50;;;4.55;;
29378;SDS011;16362;47.202;15.258;2022-08-19T06:47:18;5.20;;;3.88;;
29378;SDS011;16362;47.202;15.258;2022-08-19T06:49:52;4.80;;;4.10;;
29378;SDS011;16362;47.202;15.258;2022-08-19T06:52:26;6.43;;;3.90;;
29378;SDS011;16362;47.202;15.258;2022-08-19T06:54:53;3.35;;;3.20;;
29378;SDS011;16362;47.202;15.258;2022-08-19T06:57:25;3.30;;;3.10;;
29378;SDS011;16362;47.202;15.258;2022-08-19T06:59:53;3.40;;;3.20;;
29378;SDS011;16362;47.202;15.258;2022-08-19T07:02:22;4.28;;;3.55;;
29378;SDS011;16362;47.202;15.258;2022-08-19T07:04:52;4.13;;;3.60;;
29378;SDS011;16362;47.202;15.258;2022-08-19T07:07:20;3.60;;;3.20;;
29378;SDS011;16362;47.202;15.258;2022-08-19T07:09:48;3.40;;;3.10;;
29378;SDS011;16362;47.202;15.258;2022-08-19T07:12:24;3.22;;;2.95;;
29378;SDS011;16362;47.202;15.258;2022-08-19T07:14:51;5.57;;;3.40;;
29378;SDS011;16362;47.202;15.258;2022-08-19T07:17:19;3.28;;;2.97;;
29378;SDS011;16362;47.202;15.258;2022-08-19T07:19:47;3.30;;;3.00;;
29378;SDS011;16362;47.202;15.258;2022-08-19T07:22:14;4.30;;;3.13;;
29378;SDS011;16362;47.202;15.258;2022-08-19T07:24:42;4.50;;;3.05;;
29378;SDS011;16362;47.202;15.258;2022-08-19T07:27:16;9.77;;;3.10;;
29378;SDS011;16362;47.202;15.258;2022-08-19T07:29:49;7.38;;;4.18;;
29378;SDS011;16362;47.202;15.258;2022-08-19T07:32:23;4.55;;;4.07;;
29378;SDS011;16362;47.202;15.258;2022-08-19T07:34:53;4.10;;;3.78;;
29378;SDS011;16362;47.202;15.258;2022-08-19T07:37:21;4.20;;;3.90;;
29378;SDS011;16362;47.202;15.258;2022-08-19T07:39:48;3.28;;;3.15;;
29378;SDS011;16362;47.202;15.258;2022-08-19T07:42:15;3.50;;;3.17;;
29378;SDS011;16362;47.202;15.258;2022-08-19T07:44:43;3.22;;;3.05;;
29378;SDS011;16362;47.202;15.258;2022-08-19T07:47:16;8.98;;;4.15;;
29378;SDS011;16362;47.202;15.258;2022-08-19T07:50:05;4.00;;;3.70;;
29378;SDS011;16362;47.202;15.258;2022-08-19T07:52:33;3.20;;;3.03;;
29378;SDS011;16362;47.202;15.258;2022-08-19T07:55:03;6.15;;;4.00;;
29378;SDS011;16362;47.202;15.258;2022-08-19T07:57:30;4.50;;;4.13;;
29378;SDS011;16362;47.202;15.258;2022-08-19T07:59:58;3.47;;;3.35;;
29378;SDS011;16362;47.202;15.258;2022-08-19T08:02:25;4.22;;;3.83;;
29378;SDS011;16362;47.202;15.258;2022-08-19T08:04:52;8.13;;;3.95;;
29378;SDS011;16362;47.202;15.258;2022-08-19T08:07:38;3.83;;;3.53;;
29378;SDS011;16362;47.202;15.258;2022-08-19T08:10:24;4.35;;;4.03;;
29378;SDS011;16362;47.202;15.258;2022-08-19T08:12:51;9.13;;;3.90;;
29378;SDS011;16362;47.202;15.258;2022-08-19T08:15:36;5.55;;;3.80;;
29378;SDS011;16362;47.202;15.258;2022-08-19T08:18:09;7.68;;;3.53;;
29378;SDS011;16362;47.202;15.258;2022-08-19T08:20:36;5.50;;;3.90;;
29378;SDS011;16362;47.202;15.258;2022-08-19T08:23:03;6.20;;;3.42;;
29378;SDS011;16362;47.202;15.258;2022-08-19T08:25:48;10.32;;;4.15;;
29378;SDS011;16362;47.202;15.258;2022-08-19T08:28:16;5.00;;;3.90;;
29378;SDS011;16362;47.202;15.258;2022-08-19T08:30:44;3.88;;;3.55;;
29378;SDS011;16362;47.202;15.258;2022-08-19T08:33:19;8.25;;;3.75;;
29378;SDS011;16362;47.202;15.258;2022-08-19T08:36:06;7.17;;;4.47;;
29378;SDS011;16362;47.202;15.258;2022-08-19T08:38:37;3.70;;;3.40;;
29378;SDS011;16362;47.202;15.258;2022-08-19T08:41:13;6.18;;;3.60;;
29378;SDS011;16362;47.202;15.258;2022-08-19T08:43:46;4.53;;;3.40;;
29378;SDS011;16362;47.202;15.258;2022-08-19T08:46:17;3.42;;;3.22;;
29378;SDS011;16362;47.202;15.258;2022-08-19T08:49:15;4.15;;;3.58;;
29378;SDS011;16362;47.202;15.258;2022-08-19T08:52:24;5.68;;;3.22;;
29378;SDS011;16362;47.202;15.258;2022-08-19T08:54:59;6.07;;;3.75;;
29378;SDS011;16362;47.202;15.258;2022-08-19T08:57:44;3.60;;;3.30;;
29378;SDS011;16362;47.202;15.258;2022-08-19T09:00:19;6.35;;;3.28;;
29378;SDS011;16362;47.202;15.258;2022-08-19T09:02:55;3.58;;;3.33;;
29378;SDS011;16362;47.202;15.258;2022-08-19T09:05:26;5.63;;;3.38;;
29378;SDS011;16362;47.202;15.258;2022-08-19T09:08:21;4.10;;;3.50;;
29378;SDS011;16362;47.202;15.258;2022-08-19T09:10:51;5.07;;;3.50;;
29378;SDS011;16362;47.202;15.258;2022-08-19T09:16:06;4.25;;;2.70;;
29378;SDS011;16362;47.202;15.258;2022-08-19T09:21:07;3.15;;;2.95;;
29378;SDS011;16362;47.202;15.258;2022-08-19T09:23:35;3.60;;;3.22;;
29378;SDS011;16362;47.202;15.258;2022-08-19T09:26:13;4.60;;;3.13;;
29378;SDS011;16362;47.202;15.258;2022-08-19T09:28:45;2.67;;;2.58;;
29378;SDS011;16362;47.202;15.258;2022-08-19T09:31:20;2.75;;;2.58;;
29378;SDS011;16362;47.202;15.258;2022-08-19T09:36:19;5.22;;;2.90;;
29378;SDS011;16362;47.202;15.258;2022-08-19T09:39:00;4.18;;;2.88;;
29378;SDS011;16362;47.202;15.258;2022-08-19T09:41:41;6.57;;;3.00;;
29378;SDS011;16362;47.202;15.258;2022-08-19T09:44:14;7.57;;;3.25;;
29378;SDS011;16362;47.202;15.258;2022-08-19T09:46:41;6.57;;;3.55;;
29378;SDS011;16362;47.202;15.258;2022-08-19T09:49:08;5.28;;;3.25;;
29378;SDS011;16362;47.202;15.258;2022-08-19T09:51:35;5.65;;;3.53;;
29378;SDS011;16362;47.202;15.258;2022-08-19T09:54:03;6.68;;;3.33;;
29378;SDS011;16362;47.202;15.258;2022-08-19T09:56:31;5.03;;;3.35;;
29378;SDS011;16362;47.202;15.258;2022-08-19T09:58:59;3.03;;;2.90;;
29378;SDS011;16362;47.202;15.258;2022-08-19T10:01:28;3.63;;;3.30;;
29378;SDS011;16362;47.202;15.258;2022-08-19T10:03:58;8.50;;;4.20;;
29378;SDS011;16362;47.202;15.258;2022-08-19T10:06:27;10.55;;;3.45;;
29378;SDS011;16362;47.202;15.258;2022-08-19T10:09:12;3.65;;;3.35;;
29378;SDS011;16362;47.202;15.258;2022-08-19T10:11:42;8.25;;;4.13;;
29378;SDS011;16362;47.202;15.258;2022-08-19T10:14:19;5.18;;;3.92;;
29378;SDS011;16362;47.202;15.258;2022-08-19T10:16:48;5.25;;;3.40;;
29378;SDS011;16362;47.202;15.258;2022-08-19T10:19:18;3.65;;;3.35;;
29378;SDS011;16362;47.202;15.258;2022-08-19T10:21:51;7.55;;;3.80;;
29378;SDS011;16362;47.202;15.258;2022-08-19T10:24:18;5.22;;;4.70;;
29378;SDS011;16362;47.202;15.258;2022-08-19T10:26:46;4.40;;;4.10;;
29378;SDS011;16362;47.202;15.258;2022-08-19T10:29:24;7.82;;;4.93;;
29378;SDS011;16362;47.202;15.258;2022-08-19T10:32:02;4.60;;;4.05;;
29378;SDS011;16362;47.202;15.258;2022-08-19T10:34:38;4.32;;;3.97;;
29378;SDS011;16362;47.202;15.258;2022-08-19T10:37:15;6.57;;;4.75;;
29378;SDS011;16362;47.202;15.258;2022-08-19T10:39:56;6.10;;;4.20;;
29378;SDS011;16362;47.202;15.258;2022-08-19T10:42:23;3.72;;;3.38;;
29378;SDS011;16362;47.202;15.258;2022-08-19T10:44:50;6.53;;;4.32;;
29378;SDS011;16362;47.202;15.258;2022-08-19T10:47:17;3.72;;;3.40;;
29378;SDS011;16362;47.202;15.258;2022-08-19T10:49:51;9.48;;;4.10;;
29378;SDS011;16362;47.202;15.258;2022-08-19T10:52:38;9.73;;;3.88;;
29378;SDS011;16362;47.202;15.258;2022-08-19T10:55:15;8.77;;;3.65;;
29378;SDS011;16362;47.202;15.258;2022-08-19T10:58:03;4.93;;;3.35;;
29378;SDS011;16362;47.202;15.258;2022-08-19T11:00:30;5.32;;;3.95;;
29378;SDS011;16362;47.202;15.258;2022-08-19T11:02:57;4.70;;;4.30;;
29378;SDS011;16362;47.202;15.258;2022-08-19T11:05:24;5.38;;;4.13;;
29378;SDS011;16362;47.202;15.258;2022-08-19T11:07:51;4.63;;;3.83;;
29378;SDS011;16362;47.202;15.258;2022-08-19T11:10:18;8.95;;;3.65;;
29378;SDS011;16362;47.202;15.258;2022-08-19T11:12:47;11.07;;;4.43;;
29378;SDS011;16362;47.202;15.258;2022-08-19T11:15:14;7.93;;;3.78;;
29378;SDS011;16362;47.202;15.258;2022-08-19T11:17:42;6.72;;;3.80;;
29378;SDS011;16362;47.202;15.258;2022-08-19T11:20:17;3.30;;;3.20;;
29378;SDS011;16362;47.202;15.258;2022-08-19T11:22:44;7.68;;;3.67;;
29378;SDS011;16362;47.202;15.258;2022-08-19T11:25:12;6.03;;;4.07;;
29378;SDS011;16362;47.202;15.258;2022-08-19T11:27:39;9.10;;;4.10;;
29378;SDS011;16362;47.202;15.258;2022-08-19T11:30:10;6.40;;;3.70;;
29378;SDS011;16362;47.202;15.258;2022-08-19T11:32:42;6.97;;;4.15;;
29378;SDS011;16362;47.202;15.258;2022-08-19T11:35:14;11.25;;;4.35;;
29378;SDS011;16362;47.202;15.258;2022-08-19T11:37:42;11.02;;;3.65;;
29378;SDS011;16362;47.202;15.258;2022-08-19T11:40:09;6.47;;;4.13;;
29378;SDS011;16362;47.202;15.258;2022-08-19T11:42:36;4.05;;;3.55;;
29378;SDS011;16362;47.202;15.258;2022-08-19T11:45:22;8.05;;;3.58;;
29378;SDS011;16362;47.202;15.258;2022-08-19T11:47:50;6.10;;;3.40;;
29378;SDS011;16362;47.202;15.258;2022-08-19T11:50:17;11.75;;;3.72;;
29378;SDS011;16362;47.202;15.258;2022-08-19T11:52:45;6.70;;;3.05;;
29378;SDS011;16362;47.202;15.258;2022-08-19T11:55:13;8.35;;;3.83;;
29378;SDS011;16362;47.202;15.258;2022-08-19T11:57:40;8.32;;;3.40;;
29378;SDS011;16362;47.202;15.258;2022-08-19T12:00:10;8.35;;;3.42;;
29378;SDS011;16362;47.202;15.258;2022-08-19T12:02:39;13.57;;;4.05;;
29378;SDS011;16362;47.202;15.258;2022-08-19T12:05:06;4.43;;;3.33;;
29378;SDS011;16362;47.202;15.258;2022-08-19T12:07:38;7.57;;;3.33;;
29378;SDS011;16362;47.202;15.258;2022-08-19T12:10:06;7.47;;;3.60;;
29378;SDS011;16362;47.202;15.258;2022-08-19T12:12:34;7.25;;;3.42;;
29378;SDS011;16362;47.202;15.258;2022-08-19T12:15:00;16.13;;;4.20;;
29378;SDS011;16362;47.202;15.258;2022-08-19T12:17:28;7.22;;;3.83;;
29378;SDS011;16362;47.202;15.258;2022-08-19T12:19:57;9.60;;;3.30;;
29378;SDS011;16362;47.202;15.258;2022-08-19T12:22:23;12.60;;;3.92;;
29378;SDS011;16362;47.202;15.258;2022-08-19T12:24:50;5.15;;;3.50;;
29378;SDS011;16362;47.202;15.258;2022-08-19T12:27:19;10.25;;;5.03;;
29378;SDS011;16362;47.202;15.258;2022-08-19T12:30:06;7.63;;;3.50;;
29378;SDS011;16362;47.202;15.258;2022-08-19T12:32:35;12.82;;;4.10;;
29378;SDS011;16362;47.202;15.258;2022-08-19T12:35:02;10.98;;;4.15;;
29378;SDS011;16362;47.202;15.258;2022-08-19T12:37:29;9.93;;;4.78;;
29378;SDS011;16362;47.202;15.258;2022-08-19T12:39:58;9.13;;;4.50;;
29378;SDS011;16362;47.202;15.258;2022-08-19T12:42:25;11.13;;;4.10;;
29378;SDS011;16362;47.202;15.258;2022-08-19T12:44:52;18.23;;;4.10;;
29378;SDS011;16362;47.202;15.258;2022-08-19T12:47:19;9.98;;;4.28;;
29378;SDS011;16362;47.202;15.258;2022-08-19T12:49:47;19.02;;;4.53;;
29378;SDS011;16362;47.202;15.258;2022-08-19T12:52:21;10.40;;;4.32;;
29378;SDS011;16362;47.202;15.258;2022-08-19T12:54:54;14.60;;;4.43;;
29378;SDS011;16362;47.202;15.258;2022-08-19T12:57:23;8.82;;;4.40;;
29378;SDS011;16362;47.202;15.258;2022-08-19T12:59:59;6.43;;;3.83;;
29378;SDS011;16362;47.202;15.258;2022-08-19T13:02:31;9.98;;;4.47;;
29378;SDS011;16362;47.202;15.258;2022-08-19T13:05:04;10.88;;;4.20;;
29378;SDS011;16362;47.202;15.258;2022-08-19T13:07:34;16.30;;;4.13;;
29378;SDS011;16362;47.202;15.258;2022-08-19T13:10:02;11.90;;;5.05;;
29378;SDS011;16362;47.202;15.258;2022-08-19T13:12:29;13.85;;;4.32;;
29378;SDS011;16362;47.202;15.258;2022-08-19T13:14:56;13.98;;;4.43;;
29378;SDS011;16362;47.202;15.258;2022-08-19T13:17:23;8.73;;;3.92;;
29378;SDS011;16362;47.202;15.258;2022-08-19T13:19:50;8.05;;;3.72;;
29378;SDS011;16362;47.202;15.258;2022-08-19T13:22:17;16.58;;;4.25;;
29378;SDS011;16362;47.202;15.258;2022-08-19T13:24:44;7.28;;;4.57;;
29378;SDS011;16362;47.202;15.258;2022-08-19T13:27:12;12.85;;;6.25;;
29378;SDS011;16362;47.202;15.258;2022-08-19T13:29:41;17.80;;;4.38;;
29378;SDS011;16362;47.202;15.258;2022-08-19T13:32:28;11.18;;;3.55;;
29378;SDS011;16362;47.202;15.258;2022-08-19T13:35:14;8.90;;;3.20;;
29378;SDS011;16362;47.202;15.258;2022-08-19T13:37:43;5.35;;;3.30;;
29378;SDS011;16362;47.202;15.258;2022-08-19T13:40:13;8.45;;;3.40;;
29378;SDS011;16362;47.202;15.258;2022-08-19T13:42:46;9.77;;;3.63;;
29378;SDS011;16362;47.202;15.258;2022-08-19T13:45:15;10.27;;;3.80;;
29378;SDS011;16362;47.202;15.258;2022-08-19T13:47:48;3.80;;;2.97;;
29378;SDS011;16362;47.202;15.258;2022-08-19T13:50:23;20.05;;;4.28;;
29378;SDS011;16362;47.202;15.258;2022-08-19T13:52:54;12.43;;;3.30;;
29378;SDS011;16362;47.202;15.258;2022-08-19T13:55:22;9.32;;;3.60;;
29378;SDS011;16362;47.202;15.258;2022-08-19T13:57:51;9.05;;;3.75;;
29378;SDS011;16362;47.202;15.258;2022-08-19T14:00:19;5.75;;;3.33;;
29378;SDS011;16362;47.202;15.258;2022-08-19T14:02:49;11.32;;;3.40;;
29378;SDS011;16362;47.202;15.258;2022-08-19T14:05:18;4.35;;;3.55;;
29378;SDS011;16362;47.202;15.258;2022-08-19T14:07:46;14.05;;;3.55;;
29378;SDS011;16362;47.202;15.258;2022-08-19T14:10:14;12.52;;;3.47;;
29378;SDS011;16362;47.202;15.258;2022-08-19T14:12:42;8.35;;;3.42;;
29378;SDS011;16362;47.202;15.258;2022-08-19T14:15:09;7.53;;;3.42;;
29378;SDS011;16362;47.202;15.258;2022-08-19T14:17:38;7.68;;;3.42;;
29378;SDS011;16362;47.202;15.258;2022-08-19T14:20:07;9.38;;;3.28;;
29378;SDS011;16362;47.202;15.258;2022-08-19T14:22:44;7.38;;;3.17;;
29378;SDS011;16362;47.202;15.258;2022-08-19T14:25:13;16.58;;;3.78;;
29378;SDS011;16362;47.202;15.258;2022-08-19T14:27:42;6.60;;;3.00;;
29378;SDS011;16362;47.202;15.258;2022-08-19T14:30:11;10.45;;;3.58;;
29378;SDS011;16362;47.202;15.258;2022-08-19T14:32:39;7.40;;;3.33;;
29378;SDS011;16362;47.202;15.258;2022-08-19T14:35:06;6.28;;;2.95;;
29378;SDS011;16362;47.202;15.258;2022-08-19T14:37:33;7.82;;;4.18;;
29378;SDS011;16362;47.202;15.258;2022-08-19T14:40:11;8.13;;;3.25;;
29378;SDS011;16362;47.202;15.258;2022-08-19T14:42:40;5.05;;;3.13;;
29378;SDS011;16362;47.202;15.258;2022-08-19T14:45:08;9.95;;;3.20;;
29378;SDS011;16362;47.202;15.258;2022-08-19T14:47:37;16.80;;;4.10;;
29378;SDS011;16362;47.202;15.258;2022-08-19T14:50:07;10.05;;;3.80;;
29378;SDS011;16362;47.202;15.258;2022-08-19T14:52:43;6.13;;;3.70;;
29378;SDS011;16362;47.202;15.258;2022-08-19T14:55:10;8.63;;;3.28;;
29378;SDS011;16362;47.202;15.258;2022-08-19T14:57:37;9.02;;;3.25;;
29378;SDS011;16362;47.202;15.258;2022-08-19T15:00:04;15.55;;;3.65;;
29378;SDS011;16362;47.202;15.258;2022-08-19T15:02:31;10.88;;;4.70;;
29378;SDS011;16362;47.202;15.258;2022-08-19T15:05:00;11.27;;;4.20;;